sensor_id;sensor_type;location;lat;lon;timestamp;P1;durP1;ratioP1;P2;durP2;ratioP2
55218;SDS011;65463;43.864;20.136;2024-02-28T00:00:38;17.20;;;5.20;;
55218;SDS011;65463;43.864;20.136;2024-02-28T00:03:09;14.23;;;4.43;;
55218;SDS011;65463;43.864;20.136;2024-02-28T00:05:38;14.95;;;4.30;;
55218;SDS011;65463;43.864;20.136;2024-02-28T00:08:07;13.68;;;4.13;;
55218;SDS011;65463;43.864;20.136;2024-02-28T00:10:33;12.50;;;4.65;;
55218;SDS011;65463;43.864;20.136;2024-02-28T00:12:59;15.75;;;4.28;;
55218;SDS011;65463;43.864;20.136;2024-02-28T00:15:25;12.45;;;4.00;;
55218;SDS011;65463;43.864;20.136;2024-02-28T00:17:52;13.25;;;4.32;;
55218;SDS011;65463;43.864;20.136;2024-02-28T00:20:18;9.65;;;3.72;;
55218;SDS011;65463;43.864;20.136;2024-02-28T00:22:45;9.85;;;3.72;;
55218;SDS011;65463;43.864;20.136;2024-02-28T00:25:11;10.93;;;3.85;;
55218;SDS011;65463;43.864;20.136;2024-02-28T00:27:39;8.20;;;3.70;;
55218;SDS011;65463;43.864;20.136;2024-02-28T00:30:05;12.57;;;3.67;;
55218;SDS011;65463;43.864;20.136;2024-02-28T00:32:32;9.35;;;3.97;;
55218;SDS011;65463;43.864;20.136;2024-02-28T00:34:58;7.85;;;3.92;;
55218;SDS011;65463;43.864;20.136;2024-02-28T00:37:24;8.05;;;3.38;;
55218;SDS011;65463;43.864;20.136;2024-02-28T00:39:50;6.53;;;2.45;;
55218;SDS011;65463;43.864;20.136;2024-02-28T00:42:19;9.95;;;3.95;;
55218;SDS011;65463;43.864;20.136;2024-02-28T00:44:45;10.93;;;4.30;;
55218;SDS011;65463;43.864;20.136;2024-02-28T00:47:19;15.02;;;4.78;;
55218;SDS011;65463;43.864;20.136;2024-02-28T00:49:48;9.88;;;3.90;;
55218;SDS011;65463;43.864;20.136;2024-02-28T00:52:14;8.38;;;3.22;;
55218;SDS011;65463;43.864;20.136;2024-02-28T00:54:40;8.25;;;3.28;;
55218;SDS011;65463;43.864;20.136;2024-02-28T00:57:07;7.22;;;3.00;;
55218;SDS011;65463;43.864;20.136;2024-02-28T00:59:33;9.55;;;3.55;;
55218;SDS011;65463;43.864;20.136;2024-02-28T01:01:59;7.38;;;3.13;;
55218;SDS011;65463;43.864;20.136;2024-02-28T01:04:25;8.30;;;3.75;;
55218;SDS011;65463;43.864;20.136;2024-02-28T01:06:52;11.77;;;3.10;;
55218;SDS011;65463;43.864;20.136;2024-02-28T01:09:18;7.70;;;3.42;;
55218;SDS011;65463;43.864;20.136;2024-02-28T01:11:44;9.02;;;3.53;;
55218;SDS011;65463;43.864;20.136;2024-02-28T01:14:10;11.52;;;4.20;;
55218;SDS011;65463;43.864;20.136;2024-02-28T01:16:36;9.45;;;3.60;;
55218;SDS011;65463;43.864;20.136;2024-02-28T01:19:02;8.77;;;3.92;;
55218;SDS011;65463;43.864;20.136;2024-02-28T01:21:29;19.23;;;4.43;;
55218;SDS011;65463;43.864;20.136;2024-02-28T01:23:55;13.02;;;4.10;;
55218;SDS011;65463;43.864;20.136;2024-02-28T01:26:21;7.60;;;3.10;;
55218;SDS011;65463;43.864;20.136;2024-02-28T01:28:47;9.23;;;3.78;;
55218;SDS011;65463;43.864;20.136;2024-02-28T01:31:16;12.80;;;4.25;;
55218;SDS011;65463;43.864;20.136;2024-02-28T01:33:42;11.82;;;3.65;;
55218;SDS011;65463;43.864;20.136;2024-02-28T01:36:08;10.73;;;3.55;;
55218;SDS011;65463;43.864;20.136;2024-02-28T01:38:35;8.60;;;3.58;;
55218;SDS011;65463;43.864;20.136;2024-02-28T01:41:01;10.60;;;3.72;;
55218;SDS011;65463;43.864;20.136;2024-02-28T01:43:27;11.35;;;4.03;;
55218;SDS011;65463;43.864;20.136;2024-02-28T01:45:54;9.55;;;3.90;;
55218;SDS011;65463;43.864;20.136;2024-02-28T01:48:25;7.97;;;3.40;;
55218;SDS011;65463;43.864;20.136;2024-02-28T01:50:51;9.38;;;3.53;;
55218;SDS011;65463;43.864;20.136;2024-02-28T01:53:17;9.52;;;4.05;;
55218;SDS011;65463;43.864;20.136;2024-02-28T01:55:43;10.82;;;3.55;;
55218;SDS011;65463;43.864;20.136;2024-02-28T01:58:09;10.70;;;3.45;;
55218;SDS011;65463;43.864;20.136;2024-02-28T02:00:36;8.68;;;3.45;;
55218;SDS011;65463;43.864;20.136;2024-02-28T02:03:05;7.53;;;3.35;;
55218;SDS011;65463;43.864;20.136;2024-02-28T02:05:31;11.25;;;4.20;;
55218;SDS011;65463;43.864;20.136;2024-02-28T02:07:58;10.45;;;4.15;;
55218;SDS011;65463;43.864;20.136;2024-02-28T02:10:25;11.95;;;4.20;;
55218;SDS011;65463;43.864;20.136;2024-02-28T02:12:51;11.27;;;4.03;;
55218;SDS011;65463;43.864;20.136;2024-02-28T02:15:18;8.40;;;3.55;;
55218;SDS011;65463;43.864;20.136;2024-02-28T02:17:46;11.10;;;4.07;;
55218;SDS011;65463;43.864;20.136;2024-02-28T02:20:13;8.45;;;3.75;;
55218;SDS011;65463;43.864;20.136;2024-02-28T02:22:41;13.45;;;4.15;;
55218;SDS011;65463;43.864;20.136;2024-02-28T02:25:07;12.82;;;3.63;;
55218;SDS011;65463;43.864;20.136;2024-02-28T02:27:33;7.22;;;3.20;;
55218;SDS011;65463;43.864;20.136;2024-02-28T02:29:59;8.20;;;4.13;;
55218;SDS011;65463;43.864;20.136;2024-02-28T02:32:25;9.60;;;3.38;;
55218;SDS011;65463;43.864;20.136;2024-02-28T02:34:52;11.02;;;4.25;;
55218;SDS011;65463;43.864;20.136;2024-02-28T02:37:20;11.13;;;4.30;;
55218;SDS011;65463;43.864;20.136;2024-02-28T02:39:47;10.60;;;3.60;;
55218;SDS011;65463;43.864;20.136;2024-02-28T02:42:26;9.48;;;3.60;;
55218;SDS011;65463;43.864;20.136;2024-02-28T02:44:52;9.32;;;3.70;;
55218;SDS011;65463;43.864;20.136;2024-02-28T02:47:20;9.30;;;3.70;;
55218;SDS011;65463;43.864;20.136;2024-02-28T02:49:47;9.93;;;3.28;;
55218;SDS011;65463;43.864;20.136;2024-02-28T02:52:13;7.15;;;3.28;;
55218;SDS011;65463;43.864;20.136;2024-02-28T02:54:39;11.05;;;3.97;;
55218;SDS011;65463;43.864;20.136;2024-02-28T02:57:05;7.72;;;3.10;;
55218;SDS011;65463;43.864;20.136;2024-02-28T02:59:31;8.48;;;3.17;;
55218;SDS011;65463;43.864;20.136;2024-02-28T03:02:00;7.60;;;3.15;;
55218;SDS011;65463;43.864;20.136;2024-02-28T03:04:26;8.52;;;3.50;;
55218;SDS011;65463;43.864;20.136;2024-02-28T03:06:52;9.23;;;3.50;;
55218;SDS011;65463;43.864;20.136;2024-02-28T03:09:18;12.00;;;4.10;;
55218;SDS011;65463;43.864;20.136;2024-02-28T03:11:44;10.95;;;3.50;;
55218;SDS011;65463;43.864;20.136;2024-02-28T03:14:10;10.30;;;3.95;;
55218;SDS011;65463;43.864;20.136;2024-02-28T03:16:40;10.63;;;3.65;;
55218;SDS011;65463;43.864;20.136;2024-02-28T03:19:07;10.95;;;3.88;;
55218;SDS011;65463;43.864;20.136;2024-02-28T03:21:33;15.25;;;4.53;;
55218;SDS011;65463;43.864;20.136;2024-02-28T03:23:59;11.02;;;3.90;;
55218;SDS011;65463;43.864;20.136;2024-02-28T03:26:25;11.13;;;4.10;;
55218;SDS011;65463;43.864;20.136;2024-02-28T03:28:52;11.68;;;3.75;;
55218;SDS011;65463;43.864;20.136;2024-02-28T03:31:18;15.52;;;3.97;;
55218;SDS011;65463;43.864;20.136;2024-02-28T03:33:44;9.25;;;4.00;;
55218;SDS011;65463;43.864;20.136;2024-02-28T03:36:12;10.40;;;3.95;;
55218;SDS011;65463;43.864;20.136;2024-02-28T03:38:38;13.25;;;4.32;;
55218;SDS011;65463;43.864;20.136;2024-02-28T03:41:04;10.40;;;3.60;;
55218;SDS011;65463;43.864;20.136;2024-02-28T03:43:31;9.70;;;3.65;;
55218;SDS011;65463;43.864;20.136;2024-02-28T03:45:57;11.23;;;4.05;;
55218;SDS011;65463;43.864;20.136;2024-02-28T03:48:23;9.75;;;3.60;;
55218;SDS011;65463;43.864;20.136;2024-02-28T03:50:49;10.32;;;4.13;;
55218;SDS011;65463;43.864;20.136;2024-02-28T03:53:15;9.70;;;3.70;;
55218;SDS011;65463;43.864;20.136;2024-02-28T03:55:42;12.45;;;4.15;;
55218;SDS011;65463;43.864;20.136;2024-02-28T03:58:11;11.00;;;3.70;;
55218;SDS011;65463;43.864;20.136;2024-02-28T04:00:40;9.50;;;3.78;;
55218;SDS011;65463;43.864;20.136;2024-02-28T04:03:09;8.90;;;3.67;;
55218;SDS011;65463;43.864;20.136;2024-02-28T04:05:35;8.13;;;3.53;;
55218;SDS011;65463;43.864;20.136;2024-02-28T04:08:01;9.25;;;3.42;;
55218;SDS011;65463;43.864;20.136;2024-02-28T04:10:28;9.13;;;3.55;;
55218;SDS011;65463;43.864;20.136;2024-02-28T04:12:54;10.35;;;3.65;;
55218;SDS011;65463;43.864;20.136;2024-02-28T04:15:22;7.07;;;3.20;;
55218;SDS011;65463;43.864;20.136;2024-02-28T04:17:51;8.98;;;3.35;;
55218;SDS011;65463;43.864;20.136;2024-02-28T04:20:17;7.70;;;2.90;;
55218;SDS011;65463;43.864;20.136;2024-02-28T04:22:48;5.40;;;2.50;;
55218;SDS011;65463;43.864;20.136;2024-02-28T04:25:14;10.60;;;3.42;;
55218;SDS011;65463;43.864;20.136;2024-02-28T04:27:41;6.13;;;3.00;;
55218;SDS011;65463;43.864;20.136;2024-02-28T04:30:07;5.75;;;2.95;;
55218;SDS011;65463;43.864;20.136;2024-02-28T04:32:36;10.60;;;3.35;;
55218;SDS011;65463;43.864;20.136;2024-02-28T04:35:03;10.20;;;3.70;;
55218;SDS011;65463;43.864;20.136;2024-02-28T04:37:29;7.72;;;3.40;;
55218;SDS011;65463;43.864;20.136;2024-02-28T04:39:55;15.40;;;4.35;;
55218;SDS011;65463;43.864;20.136;2024-02-28T04:42:22;7.07;;;3.22;;
55218;SDS011;65463;43.864;20.136;2024-02-28T04:44:53;9.77;;;3.75;;
55218;SDS011;65463;43.864;20.136;2024-02-28T04:47:19;10.07;;;3.22;;
55218;SDS011;65463;43.864;20.136;2024-02-28T04:49:45;15.45;;;4.57;;
55218;SDS011;65463;43.864;20.136;2024-02-28T04:52:11;10.50;;;3.20;;
55218;SDS011;65463;43.864;20.136;2024-02-28T04:54:39;9.77;;;3.22;;
55218;SDS011;65463;43.864;20.136;2024-02-28T04:57:05;8.10;;;2.80;;
55218;SDS011;65463;43.864;20.136;2024-02-28T04:59:32;8.93;;;4.03;;
55218;SDS011;65463;43.864;20.136;2024-02-28T05:01:58;8.80;;;3.88;;
55218;SDS011;65463;43.864;20.136;2024-02-28T05:04:24;9.02;;;3.75;;
55218;SDS011;65463;43.864;20.136;2024-02-28T05:06:50;9.05;;;3.67;;
55218;SDS011;65463;43.864;20.136;2024-02-28T05:09:17;9.90;;;2.92;;
55218;SDS011;65463;43.864;20.136;2024-02-28T05:11:43;6.57;;;2.95;;
55218;SDS011;65463;43.864;20.136;2024-02-28T05:14:10;6.82;;;3.38;;
55218;SDS011;65463;43.864;20.136;2024-02-28T05:16:36;8.45;;;3.22;;
55218;SDS011;65463;43.864;20.136;2024-02-28T05:19:02;7.45;;;2.92;;
55218;SDS011;65463;43.864;20.136;2024-02-28T05:21:29;7.13;;;3.10;;
55218;SDS011;65463;43.864;20.136;2024-02-28T05:23:55;9.90;;;3.08;;
55218;SDS011;65463;43.864;20.136;2024-02-28T05:26:21;7.13;;;2.55;;
55218;SDS011;65463;43.864;20.136;2024-02-28T05:28:51;7.50;;;3.20;;
55218;SDS011;65463;43.864;20.136;2024-02-28T05:31:20;7.85;;;3.20;;
55218;SDS011;65463;43.864;20.136;2024-02-28T05:33:47;7.72;;;2.85;;
55218;SDS011;65463;43.864;20.136;2024-02-28T05:36:13;10.15;;;2.95;;
55218;SDS011;65463;43.864;20.136;2024-02-28T05:38:39;7.38;;;3.63;;
55218;SDS011;65463;43.864;20.136;2024-02-28T05:41:05;14.23;;;4.63;;
55218;SDS011;65463;43.864;20.136;2024-02-28T05:43:31;9.82;;;4.25;;
55218;SDS011;65463;43.864;20.136;2024-02-28T05:45:58;14.20;;;3.97;;
55218;SDS011;65463;43.864;20.136;2024-02-28T05:48:26;10.00;;;3.83;;
55218;SDS011;65463;43.864;20.136;2024-02-28T05:50:52;13.45;;;4.35;;
55218;SDS011;65463;43.864;20.136;2024-02-28T05:53:18;11.95;;;4.90;;
55218;SDS011;65463;43.864;20.136;2024-02-28T05:55:45;11.82;;;3.70;;
55218;SDS011;65463;43.864;20.136;2024-02-28T05:58:13;10.05;;;3.95;;
55218;SDS011;65463;43.864;20.136;2024-02-28T06:00:41;7.90;;;3.80;;
55218;SDS011;65463;43.864;20.136;2024-02-28T06:03:08;11.88;;;4.15;;
55218;SDS011;65463;43.864;20.136;2024-02-28T06:05:34;9.85;;;4.60;;
55218;SDS011;65463;43.864;20.136;2024-02-28T06:08:03;19.58;;;6.75;;
55218;SDS011;65463;43.864;20.136;2024-02-28T06:10:29;22.90;;;6.32;;
55218;SDS011;65463;43.864;20.136;2024-02-28T06:12:57;12.02;;;4.55;;
55218;SDS011;65463;43.864;20.136;2024-02-28T06:15:24;13.50;;;4.47;;
55218;SDS011;65463;43.864;20.136;2024-02-28T06:17:50;14.88;;;5.53;;
55218;SDS011;65463;43.864;20.136;2024-02-28T06:20:16;11.77;;;5.05;;
55218;SDS011;65463;43.864;20.136;2024-02-28T06:22:42;14.50;;;4.68;;
55218;SDS011;65463;43.864;20.136;2024-02-28T06:25:14;14.52;;;5.65;;
55218;SDS011;65463;43.864;20.136;2024-02-28T06:27:48;12.98;;;5.50;;
55218;SDS011;65463;43.864;20.136;2024-02-28T06:30:14;12.68;;;5.55;;
55218;SDS011;65463;43.864;20.136;2024-02-28T06:32:42;14.25;;;5.28;;
55218;SDS011;65463;43.864;20.136;2024-02-28T06:35:08;11.27;;;4.95;;
55218;SDS011;65463;43.864;20.136;2024-02-28T06:37:35;11.57;;;4.80;;
55218;SDS011;65463;43.864;20.136;2024-02-28T06:40:02;12.88;;;5.18;;
55218;SDS011;65463;43.864;20.136;2024-02-28T06:42:34;11.00;;;5.10;;
55218;SDS011;65463;43.864;20.136;2024-02-28T06:45:04;14.75;;;5.03;;
55218;SDS011;65463;43.864;20.136;2024-02-28T06:47:30;12.15;;;5.18;;
55218;SDS011;65463;43.864;20.136;2024-02-28T06:49:58;14.38;;;5.35;;
55218;SDS011;65463;43.864;20.136;2024-02-28T06:52:24;12.45;;;5.30;;
55218;SDS011;65463;43.864;20.136;2024-02-28T06:54:50;13.00;;;4.75;;
55218;SDS011;65463;43.864;20.136;2024-02-28T06:57:16;10.55;;;4.80;;
55218;SDS011;65463;43.864;20.136;2024-02-28T06:59:43;13.13;;;5.95;;
55218;SDS011;65463;43.864;20.136;2024-02-28T07:02:09;11.25;;;4.68;;
55218;SDS011;65463;43.864;20.136;2024-02-28T07:04:35;14.93;;;5.65;;
55218;SDS011;65463;43.864;20.136;2024-02-28T07:07:01;12.68;;;5.00;;
55218;SDS011;65463;43.864;20.136;2024-02-28T07:09:28;11.20;;;4.90;;
55218;SDS011;65463;43.864;20.136;2024-02-28T07:11:58;10.70;;;4.78;;
55218;SDS011;65463;43.864;20.136;2024-02-28T07:14:24;11.50;;;4.68;;
55218;SDS011;65463;43.864;20.136;2024-02-28T07:16:50;11.13;;;4.50;;
55218;SDS011;65463;43.864;20.136;2024-02-28T07:19:17;13.43;;;5.25;;
55218;SDS011;65463;43.864;20.136;2024-02-28T07:21:43;13.88;;;4.78;;
55218;SDS011;65463;43.864;20.136;2024-02-28T07:24:12;12.50;;;5.07;;
55218;SDS011;65463;43.864;20.136;2024-02-28T07:26:38;10.98;;;4.45;;
55218;SDS011;65463;43.864;20.136;2024-02-28T07:29:06;18.10;;;5.40;;
55218;SDS011;65463;43.864;20.136;2024-02-28T07:31:33;15.82;;;5.05;;
55218;SDS011;65463;43.864;20.136;2024-02-28T07:33:59;12.63;;;5.35;;
55218;SDS011;65463;43.864;20.136;2024-02-28T07:36:25;11.73;;;4.47;;
55218;SDS011;65463;43.864;20.136;2024-02-28T07:38:51;14.80;;;5.60;;
55218;SDS011;65463;43.864;20.136;2024-02-28T07:41:17;15.07;;;6.10;;
55218;SDS011;65463;43.864;20.136;2024-02-28T07:43:44;14.68;;;5.97;;
55218;SDS011;65463;43.864;20.136;2024-02-28T07:46:10;12.80;;;5.38;;
55218;SDS011;65463;43.864;20.136;2024-02-28T07:48:40;12.65;;;4.85;;
55218;SDS011;65463;43.864;20.136;2024-02-28T07:51:06;13.07;;;5.30;;
55218;SDS011;65463;43.864;20.136;2024-02-28T07:53:32;15.60;;;6.07;;
55218;SDS011;65463;43.864;20.136;2024-02-28T07:55:59;17.63;;;5.25;;
55218;SDS011;65463;43.864;20.136;2024-02-28T07:58:25;9.32;;;4.50;;
55218;SDS011;65463;43.864;20.136;2024-02-28T08:00:51;13.07;;;5.22;;
55218;SDS011;65463;43.864;20.136;2024-02-28T08:03:20;17.40;;;7.70;;
55218;SDS011;65463;43.864;20.136;2024-02-28T08:05:46;12.75;;;5.13;;
55218;SDS011;65463;43.864;20.136;2024-02-28T08:08:13;11.85;;;5.10;;
55218;SDS011;65463;43.864;20.136;2024-02-28T08:10:40;13.88;;;4.93;;
55218;SDS011;65463;43.864;20.136;2024-02-28T08:13:06;11.50;;;5.20;;
55218;SDS011;65463;43.864;20.136;2024-02-28T08:15:35;14.07;;;4.43;;
55218;SDS011;65463;43.864;20.136;2024-02-28T08:18:01;13.55;;;5.03;;
55218;SDS011;65463;43.864;20.136;2024-02-28T08:20:27;11.05;;;4.95;;
55218;SDS011;65463;43.864;20.136;2024-02-28T08:22:54;52.28;;;18.48;;
55218;SDS011;65463;43.864;20.136;2024-02-28T08:25:23;15.70;;;6.97;;
55218;SDS011;65463;43.864;20.136;2024-02-28T08:27:49;13.60;;;6.72;;
55218;SDS011;65463;43.864;20.136;2024-02-28T08:30:15;33.72;;;11.95;;
55218;SDS011;65463;43.864;20.136;2024-02-28T08:32:47;23.30;;;8.10;;
55218;SDS011;65463;43.864;20.136;2024-02-28T08:35:13;36.08;;;13.52;;
55218;SDS011;65463;43.864;20.136;2024-02-28T08:37:39;97.00;;;34.22;;
55218;SDS011;65463;43.864;20.136;2024-02-28T08:40:06;62.97;;;24.05;;
55218;SDS011;65463;43.864;20.136;2024-02-28T08:42:33;63.13;;;24.17;;
55218;SDS011;65463;43.864;20.136;2024-02-28T08:45:00;18.15;;;8.38;;
55218;SDS011;65463;43.864;20.136;2024-02-28T08:47:28;21.73;;;9.87;;
55218;SDS011;65463;43.864;20.136;2024-02-28T08:49:55;21.90;;;8.55;;
55218;SDS011;65463;43.864;20.136;2024-02-28T08:52:21;25.50;;;11.10;;
55218;SDS011;65463;43.864;20.136;2024-02-28T08:54:47;26.40;;;11.57;;
55218;SDS011;65463;43.864;20.136;2024-02-28T08:57:14;28.48;;;11.80;;
55218;SDS011;65463;43.864;20.136;2024-02-28T08:59:40;35.55;;;14.30;;
55218;SDS011;65463;43.864;20.136;2024-02-28T09:02:06;40.53;;;18.50;;
55218;SDS011;65463;43.864;20.136;2024-02-28T09:04:32;13.63;;;6.32;;
55218;SDS011;65463;43.864;20.136;2024-02-28T09:06:59;11.32;;;4.90;;
55218;SDS011;65463;43.864;20.136;2024-02-28T09:09:25;14.73;;;7.00;;
55218;SDS011;65463;43.864;20.136;2024-02-28T09:11:51;9.48;;;4.53;;
55218;SDS011;65463;43.864;20.136;2024-02-28T09:14:17;9.25;;;4.32;;
55218;SDS011;65463;43.864;20.136;2024-02-28T09:16:43;8.05;;;4.38;;
55218;SDS011;65463;43.864;20.136;2024-02-28T09:19:09;7.85;;;4.20;;
55218;SDS011;65463;43.864;20.136;2024-02-28T09:21:35;9.27;;;4.28;;
55218;SDS011;65463;43.864;20.136;2024-02-28T09:24:01;6.65;;;3.38;;
55218;SDS011;65463;43.864;20.136;2024-02-28T09:26:27;7.18;;;3.20;;
55218;SDS011;65463;43.864;20.136;2024-02-28T09:28:53;8.50;;;4.32;;
55218;SDS011;65463;43.864;20.136;2024-02-28T09:31:20;6.45;;;2.95;;
55218;SDS011;65463;43.864;20.136;2024-02-28T09:33:46;6.03;;;3.15;;
55218;SDS011;65463;43.864;20.136;2024-02-28T09:36:13;6.25;;;3.00;;
55218;SDS011;65463;43.864;20.136;2024-02-28T09:38:40;5.65;;;2.92;;
55218;SDS011;65463;43.864;20.136;2024-02-28T09:41:07;6.30;;;2.80;;
55218;SDS011;65463;43.864;20.136;2024-02-28T09:43:36;6.05;;;2.78;;
55218;SDS011;65463;43.864;20.136;2024-02-28T09:46:07;7.28;;;2.92;;
55218;SDS011;65463;43.864;20.136;2024-02-28T09:48:36;4.40;;;2.85;;
55218;SDS011;65463;43.864;20.136;2024-02-28T09:53:34;6.57;;;2.67;;
55218;SDS011;65463;43.864;20.136;2024-02-28T09:56:00;5.00;;;2.90;;
55218;SDS011;65463;43.864;20.136;2024-02-28T09:58:26;5.72;;;2.92;;
55218;SDS011;65463;43.864;20.136;2024-02-28T10:00:53;6.18;;;2.97;;
55218;SDS011;65463;43.864;20.136;2024-02-28T10:03:20;6.18;;;3.00;;
55218;SDS011;65463;43.864;20.136;2024-02-28T10:05:48;6.72;;;3.55;;
55218;SDS011;65463;43.864;20.136;2024-02-28T10:08:14;7.90;;;3.80;;
55218;SDS011;65463;43.864;20.136;2024-02-28T10:10:47;7.30;;;3.65;;
55218;SDS011;65463;43.864;20.136;2024-02-28T10:13:16;5.97;;;3.30;;
55218;SDS011;65463;43.864;20.136;2024-02-28T10:15:42;10.43;;;4.68;;
55218;SDS011;65463;43.864;20.136;2024-02-28T10:18:09;8.68;;;4.10;;
55218;SDS011;65463;43.864;20.136;2024-02-28T10:20:35;7.78;;;2.80;;
55218;SDS011;65463;43.864;20.136;2024-02-28T10:23:07;12.20;;;5.65;;
55218;SDS011;65463;43.864;20.136;2024-02-28T10:25:46;9.63;;;5.03;;
55218;SDS011;65463;43.864;20.136;2024-02-28T10:28:13;9.23;;;4.40;;
55218;SDS011;65463;43.864;20.136;2024-02-28T10:30:43;5.80;;;3.20;;
55218;SDS011;65463;43.864;20.136;2024-02-28T10:33:10;6.90;;;3.60;;
55218;SDS011;65463;43.864;20.136;2024-02-28T10:35:40;6.28;;;3.28;;
55218;SDS011;65463;43.864;20.136;2024-02-28T10:38:09;8.13;;;4.30;;
55218;SDS011;65463;43.864;20.136;2024-02-28T10:40:35;5.63;;;3.05;;
55218;SDS011;65463;43.864;20.136;2024-02-28T10:43:02;7.22;;;3.20;;
55218;SDS011;65463;43.864;20.136;2024-02-28T10:45:32;5.38;;;2.72;;
55218;SDS011;65463;43.864;20.136;2024-02-28T10:48:03;6.80;;;2.33;;
55218;SDS011;65463;43.864;20.136;2024-02-28T10:50:30;5.00;;;2.50;;
55218;SDS011;65463;43.864;20.136;2024-02-28T10:52:58;4.45;;;2.40;;
55218;SDS011;65463;43.864;20.136;2024-02-28T10:55:30;5.15;;;2.10;;
55218;SDS011;65463;43.864;20.136;2024-02-28T10:58:03;5.80;;;2.28;;
55218;SDS011;65463;43.864;20.136;2024-02-28T11:00:40;9.80;;;5.60;;
55218;SDS011;65463;43.864;20.136;2024-02-28T11:03:09;6.50;;;3.33;;
55218;SDS011;65463;43.864;20.136;2024-02-28T11:05:36;3.92;;;1.95;;
55218;SDS011;65463;43.864;20.136;2024-02-28T11:08:09;13.52;;;7.68;;
55218;SDS011;65463;43.864;20.136;2024-02-28T11:10:35;2.35;;;1.83;;
55218;SDS011;65463;43.864;20.136;2024-02-28T11:13:01;8.68;;;3.22;;
55218;SDS011;65463;43.864;20.136;2024-02-28T11:15:28;2.53;;;1.65;;
55218;SDS011;65463;43.864;20.136;2024-02-28T11:17:54;9.65;;;4.15;;
55218;SDS011;65463;43.864;20.136;2024-02-28T11:20:20;6.45;;;2.30;;
55218;SDS011;65463;43.864;20.136;2024-02-28T11:22:47;5.10;;;1.65;;
55218;SDS011;65463;43.864;20.136;2024-02-28T11:25:14;17.13;;;8.40;;
55218;SDS011;65463;43.864;20.136;2024-02-28T11:27:46;5.10;;;2.35;;
55218;SDS011;65463;43.864;20.136;2024-02-28T11:30:15;7.50;;;3.92;;
55218;SDS011;65463;43.864;20.136;2024-02-28T11:32:42;4.22;;;2.05;;
55218;SDS011;65463;43.864;20.136;2024-02-28T11:35:08;2.72;;;1.70;;
55218;SDS011;65463;43.864;20.136;2024-02-28T11:37:34;5.55;;;1.92;;
55218;SDS011;65463;43.864;20.136;2024-02-28T11:40:00;3.60;;;1.60;;
55218;SDS011;65463;43.864;20.136;2024-02-28T11:42:26;4.22;;;2.00;;
55218;SDS011;65463;43.864;20.136;2024-02-28T11:44:54;2.75;;;1.60;;
55218;SDS011;65463;43.864;20.136;2024-02-28T11:47:22;4.43;;;1.88;;
55218;SDS011;65463;43.864;20.136;2024-02-28T11:49:48;3.50;;;1.40;;
55218;SDS011;65463;43.864;20.136;2024-02-28T11:52:14;1.98;;;1.23;;
55218;SDS011;65463;43.864;20.136;2024-02-28T11:54:41;3.20;;;1.55;;
55218;SDS011;65463;43.864;20.136;2024-02-28T11:57:07;5.25;;;1.58;;
55218;SDS011;65463;43.864;20.136;2024-02-28T11:59:33;2.75;;;1.20;;
55218;SDS011;65463;43.864;20.136;2024-02-28T12:01:59;2.95;;;1.25;;
55218;SDS011;65463;43.864;20.136;2024-02-28T12:04:25;1.50;;;0.93;;
55218;SDS011;65463;43.864;20.136;2024-02-28T12:06:51;2.55;;;1.00;;
55218;SDS011;65463;43.864;20.136;2024-02-28T12:09:18;2.88;;;1.30;;
55218;SDS011;65463;43.864;20.136;2024-02-28T12:11:43;2.22;;;1.10;;
55218;SDS011;65463;43.864;20.136;2024-02-28T12:14:09;2.80;;;1.20;;
55218;SDS011;65463;43.864;20.136;2024-02-28T12:16:37;1.13;;;0.70;;
55218;SDS011;65463;43.864;20.136;2024-02-28T12:19:11;2.90;;;0.70;;
55218;SDS011;65463;43.864;20.136;2024-02-28T12:21:38;0.95;;;0.60;;
55218;SDS011;65463;43.864;20.136;2024-02-28T12:24:06;1.63;;;0.75;;
55218;SDS011;65463;43.864;20.136;2024-02-28T12:26:34;2.15;;;1.10;;
55218;SDS011;65463;43.864;20.136;2024-02-28T12:29:00;1.90;;;1.10;;
55218;SDS011;65463;43.864;20.136;2024-02-28T12:31:26;4.22;;;1.35;;
55218;SDS011;65463;43.864;20.136;2024-02-28T12:33:53;2.20;;;1.10;;
55218;SDS011;65463;43.864;20.136;2024-02-28T12:36:19;2.60;;;1.13;;
55218;SDS011;65463;43.864;20.136;2024-02-28T12:38:46;4.13;;;1.50;;
55218;SDS011;65463;43.864;20.136;2024-02-28T12:41:12;2.67;;;1.10;;
55218;SDS011;65463;43.864;20.136;2024-02-28T12:43:39;2.75;;;1.25;;
55218;SDS011;65463;43.864;20.136;2024-02-28T12:46:05;2.70;;;1.20;;
55218;SDS011;65463;43.864;20.136;2024-02-28T12:48:40;2.55;;;0.95;;
55218;SDS011;65463;43.864;20.136;2024-02-28T12:51:08;2.88;;;1.15;;
55218;SDS011;65463;43.864;20.136;2024-02-28T12:53:36;1.55;;;0.90;;
55218;SDS011;65463;43.864;20.136;2024-02-28T12:56:02;1.90;;;1.10;;
55218;SDS011;65463;43.864;20.136;2024-02-28T12:58:28;2.78;;;0.98;;
55218;SDS011;65463;43.864;20.136;2024-02-28T13:00:54;1.77;;;1.05;;
55218;SDS011;65463;43.864;20.136;2024-02-28T13:03:20;2.72;;;1.10;;
55218;SDS011;65463;43.864;20.136;2024-02-28T13:05:47;16.95;;;4.80;;
55218;SDS011;65463;43.864;20.136;2024-02-28T13:08:13;3.67;;;1.20;;
55218;SDS011;65463;43.864;20.136;2024-02-28T13:10:39;1.95;;;0.90;;
55218;SDS011;65463;43.864;20.136;2024-02-28T13:13:09;2.97;;;1.30;;
55218;SDS011;65463;43.864;20.136;2024-02-28T13:15:35;3.43;;;1.00;;
55218;SDS011;65463;43.864;20.136;2024-02-28T13:18:01;2.90;;;1.40;;
55218;SDS011;65463;43.864;20.136;2024-02-28T13:20:32;2.25;;;1.20;;
55218;SDS011;65463;43.864;20.136;2024-02-28T13:22:58;3.03;;;1.35;;
55218;SDS011;65463;43.864;20.136;2024-02-28T13:25:24;2.40;;;1.38;;
55218;SDS011;65463;43.864;20.136;2024-02-28T13:27:51;2.10;;;1.00;;
55218;SDS011;65463;43.864;20.136;2024-02-28T13:30:18;2.17;;;1.45;;
55218;SDS011;65463;43.864;20.136;2024-02-28T13:32:47;2.50;;;1.27;;
55218;SDS011;65463;43.864;20.136;2024-02-28T13:35:13;2.20;;;1.23;;
55218;SDS011;65463;43.864;20.136;2024-02-28T13:37:39;2.92;;;1.30;;
55218;SDS011;65463;43.864;20.136;2024-02-28T13:40:06;2.47;;;1.20;;
55218;SDS011;65463;43.864;20.136;2024-02-28T13:42:35;2.67;;;1.45;;
55218;SDS011;65463;43.864;20.136;2024-02-28T13:45:02;2.47;;;1.40;;
55218;SDS011;65463;43.864;20.136;2024-02-28T13:47:32;2.55;;;1.73;;
55218;SDS011;65463;43.864;20.136;2024-02-28T13:49:58;2.97;;;1.52;;
55218;SDS011;65463;43.864;20.136;2024-02-28T13:52:24;2.92;;;1.30;;
55218;SDS011;65463;43.864;20.136;2024-02-28T13:54:50;2.80;;;1.23;;
55218;SDS011;65463;43.864;20.136;2024-02-28T13:57:17;3.05;;;1.20;;
55218;SDS011;65463;43.864;20.136;2024-02-28T13:59:43;3.75;;;1.73;;
55218;SDS011;65463;43.864;20.136;2024-02-28T14:02:13;4.30;;;1.80;;
55218;SDS011;65463;43.864;20.136;2024-02-28T14:04:40;4.25;;;1.80;;
55218;SDS011;65463;43.864;20.136;2024-02-28T14:07:08;2.92;;;1.60;;
55218;SDS011;65463;43.864;20.136;2024-02-28T14:09:34;4.75;;;1.73;;
55218;SDS011;65463;43.864;20.136;2024-02-28T14:12:00;3.00;;;1.67;;
55218;SDS011;65463;43.864;20.136;2024-02-28T14:14:27;3.55;;;1.70;;
55218;SDS011;65463;43.864;20.136;2024-02-28T14:16:53;4.13;;;1.60;;
55218;SDS011;65463;43.864;20.136;2024-02-28T14:19:19;4.28;;;1.50;;
55218;SDS011;65463;43.864;20.136;2024-02-28T14:21:45;4.15;;;1.90;;
55218;SDS011;65463;43.864;20.136;2024-02-28T14:24:11;2.28;;;1.42;;
55218;SDS011;65463;43.864;20.136;2024-02-28T14:26:38;5.00;;;1.90;;
55218;SDS011;65463;43.864;20.136;2024-02-28T14:29:05;4.95;;;1.80;;